createdAt,value
2022-10-23T00:01:47.622Z,64.67
2022-10-23T00:04:25.510Z,64.78
2022-10-23T00:06:53.454Z,64.43
2022-10-23T00:09:24.797Z,64.41
2022-10-23T00:11:53.758Z,64.51
2022-10-23T00:14:25.181Z,64.27
2022-10-23T00:16:53.190Z,64.53
2022-10-23T00:19:20.993Z,64.60
2022-10-23T00:21:48.852Z,64.45
2022-10-23T00:24:16.603Z,64.36
2022-10-23T00:26:44.469Z,64.37
2022-10-23T00:29:12.310Z,64.30
2022-10-23T00:31:40.010Z,64.17
2022-10-23T00:34:08.872Z,63.85
2022-10-23T00:36:37.557Z,63.39
2022-10-23T00:39:05.597Z,63.17
2022-10-23T00:41:33.532Z,62.70
2022-10-23T00:44:04.398Z,62.44
2022-10-23T00:46:33.630Z,62.83
2022-10-23T00:49:02.662Z,62.78
2022-10-23T00:51:39.222Z,62.96
2022-10-23T00:54:25.038Z,62.98
2022-10-23T00:57:00.438Z,63.16
2022-10-23T00:59:30.050Z,62.94
2022-10-23T01:01:59.137Z,62.52
2022-10-23T01:04:28.348Z,62.25
2022-10-23T01:07:57.035Z,62.04
2022-10-23T01:10:52.550Z,62.12
2022-10-23T01:13:53.948Z,62.31
2022-10-23T01:17:11.487Z,62.27
2022-10-23T01:20:01.510Z,62.44
2022-10-23T01:23:10.317Z,62.75
2022-10-23T01:26:18.728Z,63.01
2022-10-23T01:29:05.013Z,62.97
2022-10-23T01:32:01.608Z,62.86
2022-10-23T01:35:01.422Z,62.55
2022-10-23T01:37:53.210Z,62.21
2022-10-23T01:40:31.362Z,62.29
2022-10-23T01:43:08.442Z,62.37
2022-10-23T01:45:46.096Z,62.22
2022-10-23T01:48:21.541Z,62.20
2022-10-23T01:50:53.354Z,62.04
2022-10-23T01:53:23.835Z,62.43
2022-10-23T01:55:52.623Z,62.62
2022-10-23T01:58:23.034Z,62.85
2022-10-23T02:00:54.958Z,62.84
2022-10-23T02:03:24.745Z,63.08
2022-10-23T02:05:52.575Z,62.88
2022-10-23T02:08:20.539Z,63.07
2022-10-23T02:11:00.766Z,62.72
2022-10-23T02:13:45.246Z,62.48
2022-10-23T02:16:36.753Z,62.03
2022-10-23T02:19:25.289Z,61.67
2022-10-23T02:22:11.594Z,61.17
2022-10-23T02:24:58.498Z,60.76
2022-10-23T02:27:40.121Z,60.55
2022-10-23T02:30:15.047Z,60.18
2022-10-23T02:32:50.165Z,59.89
2022-10-23T02:35:22.511Z,59.84
2022-10-23T02:38:01.618Z,60.43
2022-10-23T02:40:45.789Z,60.69
2022-10-23T02:43:24.662Z,60.17
2022-10-23T02:46:20.679Z,59.77
2022-10-23T02:49:11.421Z,57.53
2022-10-23T02:51:58.200Z,57.42
2022-10-23T02:54:55.258Z,62.32
2022-10-23T02:57:33.534Z,63.45
2022-10-23T03:00:11.698Z,62.35
2022-10-23T03:02:59.025Z,62.40
2022-10-23T03:05:34.456Z,62.11
2022-10-23T03:08:10.552Z,61.71
2022-10-23T03:10:38.838Z,61.31
2022-10-23T03:13:07.915Z,60.52
2022-10-23T03:15:35.779Z,60.70
2022-10-23T03:18:03.735Z,60.63
2022-10-23T03:20:31.542Z,60.95
2022-10-23T03:22:59.270Z,61.27
2022-10-23T03:25:27.615Z,61.14
2022-10-23T03:27:55.329Z,60.60
2022-10-23T03:30:23.078Z,60.83
2022-10-23T03:32:51.082Z,61.54
2022-10-23T03:35:18.795Z,62.04
2022-10-23T03:37:46.470Z,61.83
2022-10-23T03:40:14.316Z,61.45
2022-10-23T03:42:42.007Z,61.25
2022-10-23T03:45:10.132Z,60.93
2022-10-23T03:47:41.520Z,60.71
2022-10-23T03:50:11.214Z,60.55
2022-10-23T03:52:39.754Z,60.53
2022-10-23T03:55:08.634Z,60.35
2022-10-23T03:57:36.561Z,60.59
2022-10-23T04:00:06.841Z,60.88
2022-10-23T04:02:34.745Z,61.12
2022-10-23T04:05:02.581Z,61.43
2022-10-23T04:07:30.272Z,60.71
2022-10-23T04:09:57.981Z,61.62
2022-10-23T04:12:25.709Z,61.20
2022-10-23T04:14:53.446Z,61.08
2022-10-23T04:17:21.243Z,61.07
2022-10-23T04:19:48.997Z,61.48
2022-10-23T04:22:16.720Z,61.44
2022-10-23T04:24:46.901Z,61.39
2022-10-23T04:27:15.163Z,61.01
2022-10-23T04:29:42.852Z,60.91
2022-10-23T04:32:10.528Z,60.78
2022-10-23T04:34:38.233Z,60.61
2022-10-23T04:37:05.904Z,61.19
2022-10-23T04:39:33.608Z,61.45
2022-10-23T04:42:01.364Z,61.67
2022-10-23T04:44:29.063Z,61.75
2022-10-23T04:46:56.802Z,62.95
2022-10-23T04:49:24.491Z,62.60
2022-10-23T04:51:52.224Z,62.04
2022-10-23T04:54:19.999Z,62.19
2022-10-23T04:56:47.734Z,62.48
2022-10-23T04:59:15.470Z,63.24
2022-10-23T05:01:43.507Z,63.74
2022-10-23T05:04:11.283Z,64.45
2022-10-23T05:06:39.024Z,64.72
2022-10-23T05:09:06.768Z,64.84
2022-10-23T05:11:34.455Z,65.67
2022-10-23T05:14:02.143Z,65.36
2022-10-23T05:16:48.369Z,65.08
2022-10-23T05:19:26.491Z,64.46
2022-10-23T05:21:56.167Z,63.40
2022-10-23T05:24:26.132Z,64.20
2022-10-23T05:26:54.255Z,64.74
2022-10-23T05:29:22.438Z,64.72
2022-10-23T05:31:57.168Z,64.27
2022-10-23T05:34:28.297Z,63.81
2022-10-23T05:36:56.963Z,63.66
2022-10-23T05:39:24.847Z,63.87
2022-10-23T05:41:52.577Z,63.90
2022-10-23T05:44:20.459Z,63.96
2022-10-23T05:46:48.156Z,63.60
2022-10-23T05:49:16.037Z,62.98
2022-10-23T05:51:43.753Z,63.44
2022-10-23T05:54:11.579Z,63.37
2022-10-23T05:56:43.417Z,63.08
2022-10-23T05:59:11.251Z,63.26
2022-10-23T06:01:39.136Z,62.83
2022-10-23T06:04:07.120Z,62.10
2022-10-23T06:06:36.874Z,61.57
2022-10-23T06:09:04.943Z,61.95
2022-10-23T06:11:32.731Z,62.06
2022-10-23T06:14:01.240Z,62.00
2022-10-23T06:16:29.515Z,60.94
2022-10-23T06:18:57.659Z,61.10
2022-10-23T06:21:25.335Z,64.01
2022-10-23T06:23:53.133Z,68.21
2022-10-23T06:26:21.235Z,64.67
2022-10-23T06:28:49.020Z,63.58
2022-10-23T06:31:19.350Z,63.77
2022-10-23T06:33:47.164Z,63.51
2022-10-23T06:36:14.824Z,63.11
2022-10-23T06:38:42.684Z,62.98
2022-10-23T06:41:19.784Z,62.65
2022-10-23T06:43:50.615Z,62.45
2022-10-23T06:46:20.069Z,62.95
2022-10-23T06:48:48.490Z,63.26
2022-10-23T06:51:17.577Z,63.95
2022-10-23T06:53:46.314Z,64.20
2022-10-23T06:56:14.189Z,64.83
2022-10-23T06:58:42.552Z,65.30
2022-10-23T07:01:13.599Z,65.85
2022-10-23T07:03:41.858Z,65.97
2022-10-23T07:06:11.828Z,66.28
2022-10-23T07:08:40.146Z,66.58
2022-10-23T07:11:10.775Z,66.71
2022-10-23T07:13:40.679Z,66.74
2022-10-23T07:16:25.895Z,66.74
2022-10-23T07:19:01.144Z,66.93
2022-10-23T07:21:35.414Z,67.17
2022-10-23T07:24:04.556Z,66.99
2022-10-23T07:26:33.142Z,66.91
2022-10-23T07:29:01.064Z,66.82
2022-10-23T07:31:29.648Z,66.70
2022-10-23T07:33:57.595Z,66.81
2022-10-23T07:36:25.511Z,66.66
2022-10-23T07:38:53.484Z,66.66
2022-10-23T07:41:21.637Z,66.70
2022-10-23T07:43:49.738Z,66.42
2022-10-23T07:46:17.761Z,66.38
2022-10-23T07:48:45.758Z,66.10
2022-10-23T07:51:16.376Z,66.50
2022-10-23T07:53:44.453Z,66.58
2022-10-23T07:56:15.990Z,66.39
2022-10-23T07:58:44.389Z,66.33
2022-10-23T08:01:27.359Z,66.20
2022-10-23T08:03:55.322Z,65.87
2022-10-23T08:06:23.340Z,65.86
2022-10-23T08:08:51.559Z,65.89
2022-10-23T08:11:26.498Z,65.89
2022-10-23T08:13:57.827Z,65.92
2022-10-23T08:16:26.413Z,65.98
2022-10-23T08:18:54.397Z,66.14
2022-10-23T08:21:22.290Z,66.06
2022-10-23T08:23:53.946Z,66.25
2022-10-23T08:26:23.327Z,66.28
2022-10-23T08:28:53.031Z,66.17
2022-10-23T08:31:22.849Z,66.09
2022-10-23T08:33:51.703Z,65.85
2022-10-23T08:36:23.264Z,65.91
2022-10-23T08:38:56.081Z,65.77
2022-10-23T08:41:43.066Z,65.57
2022-10-23T08:44:28.429Z,65.61
2022-10-23T08:47:12.429Z,65.61
2022-10-23T08:49:59.422Z,65.58
2022-10-23T08:52:37.794Z,65.51
2022-10-23T08:55:17.778Z,65.42
2022-10-23T08:58:01.329Z,65.34
2022-10-23T09:00:35.230Z,65.39
2022-10-23T09:03:06.020Z,65.32
2022-10-23T09:05:49.303Z,65.32
2022-10-23T09:08:58.822Z,65.30
2022-10-23T09:11:47.561Z,65.30
2022-10-23T09:14:57.691Z,65.19
2022-10-23T09:17:41.371Z,65.29
2022-10-23T09:20:20.858Z,65.44
2022-10-23T09:22:55.394Z,65.45
2022-10-23T09:25:28.209Z,65.41
2022-10-23T09:28:05.715Z,65.31
2022-10-23T09:30:39.214Z,65.17
2022-10-23T09:33:30.946Z,65.13
2022-10-23T09:36:20.472Z,65.10
2022-10-23T09:38:53.606Z,64.88
2022-10-23T09:41:38.523Z,64.39
2022-10-23T09:44:22.969Z,64.18
2022-10-23T09:47:13.186Z,64.16
2022-10-23T09:49:49.568Z,63.91
2022-10-23T09:52:18.010Z,63.70
2022-10-23T09:54:51.579Z,63.54
2022-10-23T09:57:36.017Z,63.60
2022-10-23T10:00:20.484Z,63.71
2022-10-23T10:03:00.494Z,63.42
2022-10-23T10:05:36.225Z,62.81
2022-10-23T10:08:34.715Z,62.67
2022-10-23T10:11:14.590Z,62.76
2022-10-23T10:14:36.247Z,62.56
2022-10-23T10:17:35.024Z,62.52
2022-10-23T10:20:24.399Z,62.76
2022-10-23T10:23:34.933Z,62.71
2022-10-23T10:26:37.356Z,62.71
2022-10-23T10:29:19.271Z,62.80
2022-10-23T10:32:14.172Z,62.85
2022-10-23T10:34:49.835Z,62.96
2022-10-23T10:38:10.742Z,63.15
2022-10-23T10:41:03.980Z,62.98
2022-10-23T10:43:53.017Z,62.20
2022-10-23T10:46:38.475Z,62.45
2022-10-23T10:49:18.053Z,62.98
2022-10-23T10:52:31.117Z,63.75
2022-10-23T10:55:19.044Z,64.31
2022-10-23T10:58:39.146Z,64.45
2022-10-23T11:01:36.999Z,64.35
2022-10-23T11:04:28.570Z,64.45
2022-10-23T11:07:07.078Z,64.69
2022-10-23T11:09:37.679Z,65.01
2022-10-23T11:12:05.830Z,64.75
2022-10-23T11:14:35.112Z,64.55
2022-10-23T11:17:27.525Z,64.43
2022-10-23T11:20:10.421Z,64.29
2022-10-23T11:22:56.250Z,64.50
2022-10-23T11:25:44.148Z,64.49
2022-10-23T11:28:56.038Z,64.66
2022-10-23T11:32:08.845Z,64.97
2022-10-23T11:35:25.252Z,65.16
2022-10-23T11:38:25.014Z,65.07
2022-10-23T11:41:01.551Z,65.19
2022-10-23T11:43:47.765Z,65.11
2022-10-23T11:46:38.276Z,65.02
2022-10-23T11:49:21.364Z,64.59
2022-10-23T11:52:05.526Z,63.92
2022-10-23T11:54:33.417Z,63.13
2022-10-23T11:57:10.262Z,62.75
2022-10-23T11:59:47.844Z,62.44
2022-10-23T12:02:36.954Z,62.24
2022-10-23T12:05:32.172Z,61.28
2022-10-23T12:08:02.559Z,60.65
2022-10-23T12:10:36.236Z,60.54
2022-10-23T12:13:39.145Z,60.53
2022-10-23T12:16:08.138Z,59.80
2022-10-23T12:18:53.301Z,60.07
2022-10-23T12:21:28.671Z,61.43
2022-10-23T12:24:24.904Z,63.45
2022-10-23T12:27:25.650Z,62.44
2022-10-23T12:30:19.279Z,59.65
2022-10-23T12:33:44.221Z,60.78
2022-10-23T12:36:49.427Z,62.53
2022-10-23T12:39:39.260Z,63.60
2022-10-23T12:42:21.176Z,60.86
2022-10-23T12:45:04.180Z,60.28
2022-10-23T12:47:32.607Z,59.69
2022-10-23T12:50:00.627Z,60.45
2022-10-23T12:52:28.660Z,61.55
2022-10-23T12:54:56.936Z,62.40
2022-10-23T12:57:28.453Z,63.48
2022-10-23T13:00:04.667Z,63.89
2022-10-23T13:02:34.701Z,61.87
2022-10-23T13:05:08.375Z,59.35
2022-10-23T13:07:44.686Z,58.99
2022-10-23T13:10:20.367Z,60.82
2022-10-23T13:12:59.954Z,61.70
2022-10-23T13:15:46.245Z,63.03
2022-10-23T13:18:16.986Z,63.34
2022-10-23T13:21:05.561Z,61.71
2022-10-23T13:23:35.663Z,60.10
2022-10-23T13:26:21.673Z,58.92
2022-10-23T13:28:50.652Z,59.58
2022-10-23T13:31:18.460Z,61.06
2022-10-23T13:34:06.271Z,63.57
2022-10-23T13:36:39.631Z,62.80
2022-10-23T13:39:10.649Z,61.07
2022-10-23T13:41:42.789Z,58.89
2022-10-23T13:44:14.862Z,58.14
2022-10-23T13:46:44.551Z,59.82
2022-10-23T13:49:12.565Z,61.57
2022-10-23T13:51:52.385Z,63.13
2022-10-23T13:57:00.579Z,61.94
2022-10-23T13:59:28.500Z,61.61
2022-10-23T14:01:56.460Z,59.17
2022-10-23T14:04:24.437Z,58.06
2022-10-23T14:06:58.591Z,59.42
2022-10-23T14:09:27.019Z,61.07
2022-10-23T14:11:54.893Z,64.81
2022-10-23T14:14:22.776Z,66.41
2022-10-23T14:16:52.873Z,59.56
2022-10-23T14:19:20.925Z,56.41
2022-10-23T14:21:48.822Z,57.41
2022-10-23T14:24:16.770Z,59.26
2022-10-23T14:26:44.710Z,60.62
2022-10-23T14:29:21.276Z,64.29
2022-10-23T14:31:52.370Z,65.48
2022-10-23T14:34:20.697Z,58.96
2022-10-23T14:36:56.724Z,57.06
2022-10-23T14:39:32.000Z,57.43
2022-10-23T14:41:59.858Z,58.24
2022-10-23T14:44:28.136Z,59.93
2022-10-23T14:46:56.249Z,60.43
2022-10-23T14:49:24.090Z,64.02
2022-10-23T14:51:51.954Z,64.61
2022-10-23T14:54:20.075Z,58.74
2022-10-23T14:56:48.395Z,56.18
2022-10-23T14:59:16.341Z,56.98
2022-10-23T15:01:48.260Z,57.98
2022-10-23T15:04:16.710Z,58.87
2022-10-23T15:06:46.553Z,62.60
2022-10-23T15:09:15.770Z,64.47
2022-10-23T15:11:43.841Z,62.02
2022-10-23T15:14:12.226Z,57.71
2022-10-23T15:16:43.492Z,56.04
2022-10-23T15:19:18.372Z,56.72
2022-10-23T15:21:48.605Z,57.84
2022-10-23T15:24:17.954Z,59.42
2022-10-23T15:26:46.173Z,63.19
2022-10-23T15:29:15.215Z,65.13
2022-10-23T15:31:57.161Z,62.79
2022-10-23T15:34:28.835Z,59.16
2022-10-23T15:36:58.665Z,58.11
2022-10-23T15:39:29.522Z,59.30
2022-10-23T15:41:57.652Z,62.70
2022-10-23T15:44:29.285Z,64.38
2022-10-23T15:46:58.326Z,63.09
2022-10-23T15:49:31.946Z,61.50
2022-10-23T15:52:00.519Z,60.56
2022-10-23T15:54:31.899Z,58.80
2022-10-23T15:57:02.753Z,58.01
2022-10-23T15:59:32.268Z,59.48
2022-10-23T16:02:00.574Z,62.67
2022-10-23T16:04:29.046Z,64.65
2022-10-23T16:06:57.232Z,63.43
2022-10-23T16:09:25.167Z,62.71
2022-10-23T16:11:53.079Z,62.53
2022-10-23T16:14:22.625Z,57.88
2022-10-23T16:16:53.052Z,56.41
2022-10-23T16:19:21.021Z,57.48
2022-10-23T16:21:49.072Z,58.59
2022-10-23T16:24:17.109Z,62.62
2022-10-23T16:26:50.481Z,63.95
2022-10-23T16:29:22.337Z,64.21
2022-10-23T16:31:53.082Z,59.35
2022-10-23T16:34:22.060Z,57.61
2022-10-23T16:36:50.093Z,59.54
2022-10-23T16:39:20.803Z,63.93
2022-10-23T16:41:49.160Z,66.76
2022-10-23T16:44:17.204Z,67.29
2022-10-23T16:46:45.196Z,65.59
2022-10-23T16:49:14.606Z,63.11
2022-10-23T16:51:42.525Z,62.08
2022-10-23T16:54:14.717Z,61.65
2022-10-23T16:56:43.619Z,60.89
2022-10-23T16:59:11.994Z,57.68
2022-10-23T17:01:40.754Z,57.09
2022-10-23T17:04:08.914Z,58.62
2022-10-23T17:06:37.697Z,63.64
2022-10-23T17:09:06.374Z,64.94
2022-10-23T17:11:40.538Z,63.09
2022-10-23T17:14:19.924Z,61.35
2022-10-23T17:16:51.632Z,62.28
2022-10-23T17:19:45.040Z,60.84
2022-10-23T17:22:14.819Z,57.08
2022-10-23T17:24:46.376Z,57.51
2022-10-23T17:27:17.254Z,58.32
2022-10-23T17:29:45.248Z,62.66
2022-10-23T17:32:13.336Z,63.93
2022-10-23T17:34:41.380Z,62.24
2022-10-23T17:37:10.383Z,62.49
2022-10-23T17:39:38.237Z,61.79
2022-10-23T17:42:06.099Z,59.90
2022-10-23T17:44:34.269Z,57.29
2022-10-23T17:47:02.259Z,56.83
2022-10-23T17:49:30.158Z,58.47
2022-10-23T17:52:00.395Z,63.09
2022-10-23T17:54:28.625Z,65.88
2022-10-23T17:56:56.954Z,65.84
2022-10-23T17:59:24.931Z,64.05
2022-10-23T18:01:56.307Z,63.65
2022-10-23T18:04:25.201Z,62.58
2022-10-23T18:07:01.089Z,62.74
2022-10-23T18:09:28.990Z,61.77
2022-10-23T18:11:57.238Z,62.12
2022-10-23T18:14:27.339Z,62.35
2022-10-23T18:16:57.459Z,62.28
2022-10-23T18:19:25.374Z,62.36
2022-10-23T18:21:53.342Z,62.84
2022-10-23T18:24:21.269Z,63.02
2022-10-23T18:26:49.194Z,62.97
2022-10-23T18:29:18.040Z,63.40
2022-10-23T18:31:48.442Z,63.68
2022-10-23T18:34:23.707Z,64.07
2022-10-23T18:36:54.517Z,63.45
2022-10-23T18:39:26.179Z,63.67
2022-10-23T18:41:58.221Z,62.84
2022-10-23T18:44:31.288Z,62.54
2022-10-23T18:47:00.716Z,63.72
2022-10-23T18:49:28.909Z,64.06
2022-10-23T18:51:58.477Z,63.43
2022-10-23T18:54:30.039Z,63.78
2022-10-23T18:56:57.762Z,62.72
2022-10-23T18:59:25.544Z,62.16
2022-10-23T19:01:53.716Z,62.24
2022-10-23T19:04:22.103Z,62.04
2022-10-23T19:06:51.253Z,61.67
2022-10-23T19:09:20.346Z,61.15
2022-10-23T19:11:48.550Z,61.53
2022-10-23T19:14:16.759Z,61.05
2022-10-23T19:17:03.053Z,61.73
2022-10-23T19:19:43.254Z,61.46
2022-10-23T19:22:14.172Z,60.54
2022-10-23T19:24:49.308Z,60.23
2022-10-23T19:27:20.070Z,60.03
2022-10-23T19:29:51.809Z,60.18
2022-10-23T19:32:19.606Z,60.06
2022-10-23T19:34:47.510Z,60.30
2022-10-23T19:37:16.118Z,60.53
2022-10-23T19:39:43.985Z,58.59
2022-10-23T19:42:13.641Z,58.34
2022-10-23T19:44:41.954Z,62.14
2022-10-23T19:47:10.059Z,64.65
2022-10-23T19:49:38.581Z,64.73
2022-10-23T19:52:08.073Z,62.00
2022-10-23T19:54:36.105Z,61.25
2022-10-23T19:57:04.714Z,61.61
2022-10-23T19:59:36.521Z,61.71
2022-10-23T20:02:04.663Z,61.61
2022-10-23T20:04:32.534Z,61.17
2022-10-23T20:07:00.669Z,60.94
2022-10-23T20:09:28.480Z,60.22
2022-10-23T20:11:56.306Z,57.94
2022-10-23T20:14:24.065Z,58.96
2022-10-23T20:16:55.887Z,62.63
2022-10-23T20:19:24.138Z,63.77
2022-10-23T20:21:52.809Z,63.46
2022-10-23T20:24:22.784Z,63.36
2022-10-23T20:26:54.535Z,63.70
2022-10-23T20:29:26.901Z,64.07
2022-10-23T20:31:54.720Z,63.73
2022-10-23T20:34:22.489Z,63.28
2022-10-23T20:36:50.550Z,63.38
2022-10-23T20:39:25.767Z,63.27
2022-10-23T20:41:55.555Z,62.92
2022-10-23T20:44:24.504Z,63.12
2022-10-23T20:46:52.745Z,62.47
2022-10-23T20:49:22.098Z,61.91
2022-10-23T20:51:55.839Z,61.34
2022-10-23T20:54:26.990Z,60.87
2022-10-23T20:56:57.151Z,60.65
2022-10-23T20:59:25.485Z,61.15
2022-10-23T21:01:55.599Z,61.36
2022-10-23T21:04:27.628Z,61.92
2022-10-23T21:07:09.874Z,61.48
2022-10-23T21:09:39.504Z,61.77
2022-10-23T21:12:07.809Z,61.95
2022-10-23T21:14:36.469Z,62.20
2022-10-23T21:17:05.320Z,62.31
2022-10-23T21:19:33.093Z,62.42
2022-10-23T21:22:00.863Z,62.76
2022-10-23T21:24:28.603Z,63.02
2022-10-23T21:26:56.634Z,63.19
2022-10-23T21:29:24.394Z,63.17
2022-10-23T21:31:59.792Z,62.71
2022-10-23T21:34:28.369Z,63.08
2022-10-23T21:37:13.347Z,63.35
2022-10-23T21:39:44.040Z,63.41
2022-10-23T21:42:14.155Z,63.56
2022-10-23T21:44:42.057Z,63.62
2022-10-23T21:47:10.181Z,63.07
2022-10-23T21:49:37.996Z,62.40
2022-10-23T21:52:06.619Z,62.36
2022-10-23T21:54:34.373Z,61.95
2022-10-23T21:57:03.568Z,61.90
2022-10-23T21:59:33.150Z,61.81
2022-10-23T22:02:04.389Z,61.74
2022-10-23T22:04:32.376Z,62.09
2022-10-23T22:07:00.382Z,62.27
2022-10-23T22:09:28.903Z,62.34
2022-10-23T22:11:57.040Z,62.43
2022-10-23T22:14:24.705Z,62.45
2022-10-23T22:16:53.784Z,61.98
2022-10-23T22:19:23.490Z,61.76
2022-10-23T22:21:52.001Z,61.31
2022-10-23T22:24:20.195Z,60.92
2022-10-23T22:26:53.729Z,60.69
2022-10-23T22:29:26.710Z,61.05
2022-10-23T22:31:54.480Z,60.91
2022-10-23T22:34:48.389Z,61.17
2022-10-23T22:37:13.833Z,61.59
2022-10-23T22:39:41.952Z,61.23
2022-10-23T22:42:09.897Z,61.39
2022-10-23T22:44:37.708Z,61.85
2022-10-23T22:47:05.416Z,61.63
2022-10-23T22:49:33.114Z,60.16
2022-10-23T22:52:00.971Z,60.42
2022-10-23T22:54:30.706Z,60.61
2022-10-23T22:56:58.610Z,60.23
2022-10-23T22:59:26.572Z,60.28
2022-10-23T23:01:54.878Z,60.39
2022-10-23T23:04:38.992Z,60.17
2022-10-23T23:07:10.389Z,57.66
2022-10-23T23:09:41.604Z,57.23
2022-10-23T23:12:13.367Z,58.53
2022-10-23T23:14:42.575Z,61.95
2022-10-23T23:17:11.346Z,63.48
2022-10-23T23:19:39.488Z,63.06
2022-10-23T23:22:07.393Z,62.09
2022-10-23T23:24:35.210Z,61.06
2022-10-23T23:27:03.086Z,58.28
2022-10-23T23:29:31.985Z,58.37
2022-10-23T23:31:59.743Z,61.91
2022-10-23T23:34:29.010Z,64.15
2022-10-23T23:36:56.805Z,64.00
2022-10-23T23:39:26.220Z,63.03
2022-10-23T23:41:54.117Z,62.01
2022-10-23T23:44:21.932Z,60.89
2022-10-23T23:46:49.685Z,60.54
2022-10-23T23:49:17.348Z,60.08
2022-10-23T23:51:45.018Z,58.35
2022-10-23T23:54:12.721Z,57.96
2022-10-23T23:56:40.715Z,58.66
2022-10-23T23:59:08.502Z,62.87
